sensor_id;sensor_type;location;lat;lon;timestamp;P1;durP1;ratioP1;P2;durP2;ratioP2
72493;SDS011;60520;49.182;-0.348;2024-01-11T00:00:10;6.65;;;5.15;;
72493;SDS011;60520;49.182;-0.348;2024-01-11T00:02:37;8.20;;;5.00;;
72493;SDS011;60520;49.182;-0.348;2024-01-11T00:05:05;7.57;;;5.32;;
72493;SDS011;60520;49.182;-0.348;2024-01-11T00:07:34;6.90;;;4.72;;
72493;SDS011;60520;49.182;-0.348;2024-01-11T00:10:01;6.97;;;5.28;;
72493;SDS011;60520;49.182;-0.348;2024-01-11T00:12:29;7.78;;;5.13;;
72493;SDS011;60520;49.182;-0.348;2024-01-11T00:14:56;8.10;;;5.43;;
72493;SDS011;60520;49.182;-0.348;2024-01-11T00:17:24;7.15;;;4.85;;
72493;SDS011;60520;49.182;-0.348;2024-01-11T00:19:51;7.03;;;5.00;;
72493;SDS011;60520;49.182;-0.348;2024-01-11T00:22:18;7.22;;;5.38;;
72493;SDS011;60520;49.182;-0.348;2024-01-11T00:24:47;7.10;;;5.18;;
72493;SDS011;60520;49.182;-0.348;2024-01-11T00:27:14;7.45;;;5.20;;
72493;SDS011;60520;49.182;-0.348;2024-01-11T00:29:41;9.05;;;5.07;;
72493;SDS011;60520;49.182;-0.348;2024-01-11T00:32:09;6.63;;;4.88;;
72493;SDS011;60520;49.182;-0.348;2024-01-11T00:34:37;7.88;;;5.38;;
72493;SDS011;60520;49.182;-0.348;2024-01-11T00:37:04;6.70;;;4.90;;
72493;SDS011;60520;49.182;-0.348;2024-01-11T00:39:31;7.20;;;5.05;;
72493;SDS011;60520;49.182;-0.348;2024-01-11T00:42:00;6.70;;;4.88;;
72493;SDS011;60520;49.182;-0.348;2024-01-11T00:44:27;7.57;;;5.07;;
72493;SDS011;60520;49.182;-0.348;2024-01-11T00:46:54;6.35;;;4.95;;
72493;SDS011;60520;49.182;-0.348;2024-01-11T00:49:21;7.20;;;4.95;;
72493;SDS011;60520;49.182;-0.348;2024-01-11T00:51:48;7.25;;;5.22;;
72493;SDS011;60520;49.182;-0.348;2024-01-11T00:54:15;6.65;;;4.93;;
72493;SDS011;60520;49.182;-0.348;2024-01-11T00:56:42;7.68;;;4.90;;
72493;SDS011;60520;49.182;-0.348;2024-01-11T00:59:11;6.88;;;5.05;;
72493;SDS011;60520;49.182;-0.348;2024-01-11T01:01:38;7.63;;;5.07;;
72493;SDS011;60520;49.182;-0.348;2024-01-11T01:04:05;6.38;;;4.63;;
72493;SDS011;60520;49.182;-0.348;2024-01-11T01:06:32;6.68;;;4.75;;
72493;SDS011;60520;49.182;-0.348;2024-01-11T01:08:59;6.78;;;4.82;;
72493;SDS011;60520;49.182;-0.348;2024-01-11T01:11:27;6.43;;;4.80;;
72493;SDS011;60520;49.182;-0.348;2024-01-11T01:13:54;6.60;;;4.90;;
72493;SDS011;60520;49.182;-0.348;2024-01-11T01:16:23;7.38;;;5.03;;
72493;SDS011;60520;49.182;-0.348;2024-01-11T01:18:50;6.68;;;5.00;;
72493;SDS011;60520;49.182;-0.348;2024-01-11T01:21:17;7.75;;;4.60;;
72493;SDS011;60520;49.182;-0.348;2024-01-11T01:23:44;5.93;;;4.40;;
72493;SDS011;60520;49.182;-0.348;2024-01-11T01:26:12;6.13;;;4.80;;
72493;SDS011;60520;49.182;-0.348;2024-01-11T01:28:39;7.45;;;4.72;;
72493;SDS011;60520;49.182;-0.348;2024-01-11T01:31:06;6.78;;;4.47;;
72493;SDS011;60520;49.182;-0.348;2024-01-11T01:33:35;7.10;;;4.97;;
72493;SDS011;60520;49.182;-0.348;2024-01-11T01:36:02;7.03;;;5.05;;
72493;SDS011;60520;49.182;-0.348;2024-01-11T01:38:29;7.18;;;4.70;;
72493;SDS011;60520;49.182;-0.348;2024-01-11T01:40:56;7.93;;;5.00;;
72493;SDS011;60520;49.182;-0.348;2024-01-11T01:43:23;8.25;;;4.88;;
72493;SDS011;60520;49.182;-0.348;2024-01-11T01:45:50;6.57;;;4.85;;
72493;SDS011;60520;49.182;-0.348;2024-01-11T01:48:18;7.15;;;4.78;;
72493;SDS011;60520;49.182;-0.348;2024-01-11T01:50:47;6.30;;;4.53;;
72493;SDS011;60520;49.182;-0.348;2024-01-11T01:53:16;7.55;;;4.88;;
72493;SDS011;60520;49.182;-0.348;2024-01-11T01:55:43;7.07;;;4.93;;
72493;SDS011;60520;49.182;-0.348;2024-01-11T01:58:11;6.85;;;5.00;;
72493;SDS011;60520;49.182;-0.348;2024-01-11T02:00:39;6.28;;;4.55;;
72493;SDS011;60520;49.182;-0.348;2024-01-11T02:03:07;7.15;;;4.82;;
72493;SDS011;60520;49.182;-0.348;2024-01-11T02:05:35;7.45;;;5.03;;
72493;SDS011;60520;49.182;-0.348;2024-01-11T02:08:05;6.30;;;4.47;;
72493;SDS011;60520;49.182;-0.348;2024-01-11T02:10:34;6.95;;;4.70;;
72493;SDS011;60520;49.182;-0.348;2024-01-11T02:13:01;6.68;;;4.88;;
72493;SDS011;60520;49.182;-0.348;2024-01-11T02:15:28;6.65;;;4.75;;
72493;SDS011;60520;49.182;-0.348;2024-01-11T02:17:56;7.22;;;4.72;;
72493;SDS011;60520;49.182;-0.348;2024-01-11T02:20:23;6.53;;;4.75;;
72493;SDS011;60520;49.182;-0.348;2024-01-11T02:22:52;6.38;;;4.57;;
72493;SDS011;60520;49.182;-0.348;2024-01-11T02:25:21;6.53;;;4.57;;
72493;SDS011;60520;49.182;-0.348;2024-01-11T02:27:49;6.07;;;4.43;;
72493;SDS011;60520;49.182;-0.348;2024-01-11T02:30:16;7.03;;;4.78;;
72493;SDS011;60520;49.182;-0.348;2024-01-11T02:32:44;6.80;;;4.60;;
72493;SDS011;60520;49.182;-0.348;2024-01-11T02:35:12;6.60;;;5.20;;
72493;SDS011;60520;49.182;-0.348;2024-01-11T02:37:39;6.97;;;4.82;;
72493;SDS011;60520;49.182;-0.348;2024-01-11T02:40:07;7.05;;;4.68;;
72493;SDS011;60520;49.182;-0.348;2024-01-11T02:42:36;6.00;;;4.38;;
72493;SDS011;60520;49.182;-0.348;2024-01-11T02:45:03;5.68;;;4.57;;
72493;SDS011;60520;49.182;-0.348;2024-01-11T02:47:30;7.00;;;4.50;;
72493;SDS011;60520;49.182;-0.348;2024-01-11T02:49:57;5.95;;;4.55;;
72493;SDS011;60520;49.182;-0.348;2024-01-11T02:52:25;6.35;;;4.65;;
72493;SDS011;60520;49.182;-0.348;2024-01-11T02:54:52;6.93;;;4.68;;
72493;SDS011;60520;49.182;-0.348;2024-01-11T02:57:19;6.72;;;4.82;;
72493;SDS011;60520;49.182;-0.348;2024-01-11T02:59:47;8.00;;;4.80;;
72493;SDS011;60520;49.182;-0.348;2024-01-11T03:02:14;8.10;;;4.65;;
72493;SDS011;60520;49.182;-0.348;2024-01-11T03:04:42;8.20;;;4.97;;
72493;SDS011;60520;49.182;-0.348;2024-01-11T03:07:09;5.50;;;4.05;;
72493;SDS011;60520;49.182;-0.348;2024-01-11T03:09:36;6.40;;;4.53;;
72493;SDS011;60520;49.182;-0.348;2024-01-11T03:12:03;6.10;;;4.60;;
72493;SDS011;60520;49.182;-0.348;2024-01-11T03:14:32;7.60;;;5.00;;
72493;SDS011;60520;49.182;-0.348;2024-01-11T03:17:00;6.93;;;4.63;;
72493;SDS011;60520;49.182;-0.348;2024-01-11T03:19:28;7.38;;;4.90;;
72493;SDS011;60520;49.182;-0.348;2024-01-11T03:21:55;6.95;;;5.03;;
72493;SDS011;60520;49.182;-0.348;2024-01-11T03:24:22;6.25;;;4.63;;
72493;SDS011;60520;49.182;-0.348;2024-01-11T03:26:49;6.30;;;4.72;;
72493;SDS011;60520;49.182;-0.348;2024-01-11T03:29:15;6.40;;;4.32;;
72493;SDS011;60520;49.182;-0.348;2024-01-11T03:31:43;6.82;;;4.80;;
72493;SDS011;60520;49.182;-0.348;2024-01-11T03:34:11;6.28;;;4.47;;
72493;SDS011;60520;49.182;-0.348;2024-01-11T03:36:38;6.32;;;4.75;;
72493;SDS011;60520;49.182;-0.348;2024-01-11T03:39:06;6.22;;;4.70;;
72493;SDS011;60520;49.182;-0.348;2024-01-11T03:41:33;7.32;;;4.55;;
72493;SDS011;60520;49.182;-0.348;2024-01-11T03:44:00;6.38;;;4.55;;
72493;SDS011;60520;49.182;-0.348;2024-01-11T03:46:27;7.55;;;4.65;;
72493;SDS011;60520;49.182;-0.348;2024-01-11T03:48:54;6.95;;;4.53;;
72493;SDS011;60520;49.182;-0.348;2024-01-11T03:51:23;6.43;;;4.63;;
72493;SDS011;60520;49.182;-0.348;2024-01-11T03:53:50;6.00;;;4.25;;
72493;SDS011;60520;49.182;-0.348;2024-01-11T03:56:17;6.93;;;4.90;;
72493;SDS011;60520;49.182;-0.348;2024-01-11T03:58:44;6.63;;;4.82;;
72493;SDS011;60520;49.182;-0.348;2024-01-11T04:01:12;5.82;;;4.32;;
72493;SDS011;60520;49.182;-0.348;2024-01-11T04:03:39;7.20;;;4.88;;
72493;SDS011;60520;49.182;-0.348;2024-01-11T04:06:08;5.05;;;3.80;;
72493;SDS011;60520;49.182;-0.348;2024-01-11T04:08:36;6.35;;;4.30;;
72493;SDS011;60520;49.182;-0.348;2024-01-11T04:11:03;6.53;;;4.40;;
72493;SDS011;60520;49.182;-0.348;2024-01-11T04:13:31;6.63;;;4.80;;
72493;SDS011;60520;49.182;-0.348;2024-01-11T04:15:58;6.50;;;4.65;;
72493;SDS011;60520;49.182;-0.348;2024-01-11T04:18:25;6.53;;;4.70;;
72493;SDS011;60520;49.182;-0.348;2024-01-11T04:20:52;7.38;;;4.63;;
72493;SDS011;60520;49.182;-0.348;2024-01-11T04:23:19;6.82;;;5.07;;
72493;SDS011;60520;49.182;-0.348;2024-01-11T04:25:48;6.88;;;4.82;;
72493;SDS011;60520;49.182;-0.348;2024-01-11T04:28:15;6.82;;;4.50;;
72493;SDS011;60520;49.182;-0.348;2024-01-11T04:30:42;6.88;;;5.07;;
72493;SDS011;60520;49.182;-0.348;2024-01-11T04:33:10;7.00;;;4.47;;
72493;SDS011;60520;49.182;-0.348;2024-01-11T04:35:37;8.05;;;5.15;;
72493;SDS011;60520;49.182;-0.348;2024-01-11T04:38:04;6.18;;;4.20;;
72493;SDS011;60520;49.182;-0.348;2024-01-11T04:40:31;6.07;;;4.50;;
72493;SDS011;60520;49.182;-0.348;2024-01-11T04:43:00;7.22;;;4.45;;
72493;SDS011;60520;49.182;-0.348;2024-01-11T04:45:27;7.45;;;4.93;;
72493;SDS011;60520;49.182;-0.348;2024-01-11T04:47:54;7.32;;;4.88;;
72493;SDS011;60520;49.182;-0.348;2024-01-11T04:50:21;7.10;;;4.57;;
72493;SDS011;60520;49.182;-0.348;2024-01-11T04:52:48;7.55;;;4.53;;
72493;SDS011;60520;49.182;-0.348;2024-01-11T04:55:16;6.75;;;4.55;;
72493;SDS011;60520;49.182;-0.348;2024-01-11T04:57:43;7.10;;;4.75;;
72493;SDS011;60520;49.182;-0.348;2024-01-11T05:00:12;7.60;;;4.38;;
72493;SDS011;60520;49.182;-0.348;2024-01-11T05:02:39;6.68;;;4.55;;
72493;SDS011;60520;49.182;-0.348;2024-01-11T05:05:07;7.13;;;4.90;;
72493;SDS011;60520;49.182;-0.348;2024-01-11T05:07:34;6.70;;;4.47;;
72493;SDS011;60520;49.182;-0.348;2024-01-11T05:10:01;7.30;;;4.70;;
72493;SDS011;60520;49.182;-0.348;2024-01-11T05:12:29;6.68;;;4.68;;
72493;SDS011;60520;49.182;-0.348;2024-01-11T05:14:56;6.30;;;4.70;;
72493;SDS011;60520;49.182;-0.348;2024-01-11T05:17:24;7.93;;;4.80;;
72493;SDS011;60520;49.182;-0.348;2024-01-11T05:19:51;7.15;;;5.20;;
72493;SDS011;60520;49.182;-0.348;2024-01-11T05:22:18;7.28;;;4.75;;
72493;SDS011;60520;49.182;-0.348;2024-01-11T05:24:47;6.78;;;4.72;;
72493;SDS011;60520;49.182;-0.348;2024-01-11T05:27:14;7.30;;;4.57;;
72493;SDS011;60520;49.182;-0.348;2024-01-11T05:29:41;7.47;;;4.57;;
72493;SDS011;60520;49.182;-0.348;2024-01-11T05:32:08;7.13;;;4.90;;
72493;SDS011;60520;49.182;-0.348;2024-01-11T05:34:37;6.85;;;4.72;;
72493;SDS011;60520;49.182;-0.348;2024-01-11T05:37:04;7.28;;;4.70;;
72493;SDS011;60520;49.182;-0.348;2024-01-11T05:39:31;6.95;;;4.28;;
72493;SDS011;60520;49.182;-0.348;2024-01-11T05:41:58;6.38;;;4.65;;
72493;SDS011;60520;49.182;-0.348;2024-01-11T05:44:25;7.38;;;4.72;;
72493;SDS011;60520;49.182;-0.348;2024-01-11T05:46:52;6.70;;;4.20;;
72493;SDS011;60520;49.182;-0.348;2024-01-11T05:49:19;6.47;;;4.40;;
72493;SDS011;60520;49.182;-0.348;2024-01-11T05:51:48;6.85;;;4.60;;
72493;SDS011;60520;49.182;-0.348;2024-01-11T05:54:15;5.97;;;4.65;;
72493;SDS011;60520;49.182;-0.348;2024-01-11T05:56:42;7.18;;;4.70;;
72493;SDS011;60520;49.182;-0.348;2024-01-11T05:59:09;6.63;;;4.78;;
72493;SDS011;60520;49.182;-0.348;2024-01-11T06:01:40;7.18;;;4.55;;
72493;SDS011;60520;49.182;-0.348;2024-01-11T06:04:07;6.32;;;4.32;;
72493;SDS011;60520;49.182;-0.348;2024-01-11T06:06:35;6.47;;;4.60;;
72493;SDS011;60520;49.182;-0.348;2024-01-11T06:09:03;6.43;;;4.70;;
72493;SDS011;60520;49.182;-0.348;2024-01-11T06:11:30;7.65;;;5.10;;
72493;SDS011;60520;49.182;-0.348;2024-01-11T06:13:57;6.40;;;4.53;;
72493;SDS011;60520;49.182;-0.348;2024-01-11T06:16:25;6.75;;;4.57;;
72493;SDS011;60520;49.182;-0.348;2024-01-11T06:18:52;6.25;;;4.45;;
72493;SDS011;60520;49.182;-0.348;2024-01-11T06:21:19;7.20;;;4.80;;
72493;SDS011;60520;49.182;-0.348;2024-01-11T06:23:46;7.35;;;4.57;;
72493;SDS011;60520;49.182;-0.348;2024-01-11T06:26:15;7.30;;;5.10;;
72493;SDS011;60520;49.182;-0.348;2024-01-11T06:28:42;7.13;;;4.47;;
72493;SDS011;60520;49.182;-0.348;2024-01-11T06:31:09;7.95;;;4.78;;
72493;SDS011;60520;49.182;-0.348;2024-01-11T06:33:37;5.72;;;4.28;;
72493;SDS011;60520;49.182;-0.348;2024-01-11T06:36:05;7.35;;;4.72;;
72493;SDS011;60520;49.182;-0.348;2024-01-11T06:38:32;7.13;;;4.45;;
72493;SDS011;60520;49.182;-0.348;2024-01-11T06:40:59;6.07;;;4.30;;
72493;SDS011;60520;49.182;-0.348;2024-01-11T06:43:28;6.07;;;4.28;;
72493;SDS011;60520;49.182;-0.348;2024-01-11T06:45:55;6.35;;;4.50;;
72493;SDS011;60520;49.182;-0.348;2024-01-11T06:48:22;6.20;;;4.18;;
72493;SDS011;60520;49.182;-0.348;2024-01-11T06:50:49;7.97;;;4.75;;
72493;SDS011;60520;49.182;-0.348;2024-01-11T06:53:16;6.40;;;4.32;;
72493;SDS011;60520;49.182;-0.348;2024-01-11T06:55:43;5.43;;;4.30;;
72493;SDS011;60520;49.182;-0.348;2024-01-11T06:58:12;6.43;;;4.32;;
72493;SDS011;60520;49.182;-0.348;2024-01-11T07:00:41;6.20;;;4.63;;
72493;SDS011;60520;49.182;-0.348;2024-01-11T07:03:09;7.10;;;4.82;;
72493;SDS011;60520;49.182;-0.348;2024-01-11T07:05:36;5.82;;;4.07;;
72493;SDS011;60520;49.182;-0.348;2024-01-11T07:08:03;6.57;;;4.45;;
72493;SDS011;60520;49.182;-0.348;2024-01-11T07:10:30;6.20;;;4.65;;
72493;SDS011;60520;49.182;-0.348;2024-01-11T07:12:58;6.88;;;4.63;;
72493;SDS011;60520;49.182;-0.348;2024-01-11T07:15:25;6.07;;;4.30;;
72493;SDS011;60520;49.182;-0.348;2024-01-11T07:17:54;6.95;;;4.65;;
72493;SDS011;60520;49.182;-0.348;2024-01-11T07:20:21;7.05;;;4.63;;
72493;SDS011;60520;49.182;-0.348;2024-01-11T07:22:48;6.05;;;4.38;;
72493;SDS011;60520;49.182;-0.348;2024-01-11T07:25:15;6.90;;;4.50;;
72493;SDS011;60520;49.182;-0.348;2024-01-11T07:27:42;6.38;;;4.13;;
72493;SDS011;60520;49.182;-0.348;2024-01-11T07:30:10;5.38;;;4.03;;
72493;SDS011;60520;49.182;-0.348;2024-01-11T07:32:38;7.60;;;4.80;;
72493;SDS011;60520;49.182;-0.348;2024-01-11T07:35:07;5.88;;;4.13;;
72493;SDS011;60520;49.182;-0.348;2024-01-11T07:37:35;6.90;;;4.50;;
72493;SDS011;60520;49.182;-0.348;2024-01-11T07:40:02;6.03;;;4.40;;
72493;SDS011;60520;49.182;-0.348;2024-01-11T07:42:30;6.63;;;4.63;;
72493;SDS011;60520;49.182;-0.348;2024-01-11T07:44:57;6.60;;;4.32;;
72493;SDS011;60520;49.182;-0.348;2024-01-11T07:47:24;5.60;;;4.13;;
72493;SDS011;60520;49.182;-0.348;2024-01-11T07:49:51;6.28;;;4.60;;
72493;SDS011;60520;49.182;-0.348;2024-01-11T07:52:20;5.78;;;4.38;;
72493;SDS011;60520;49.182;-0.348;2024-01-11T07:54:47;6.85;;;4.85;;
72493;SDS011;60520;49.182;-0.348;2024-01-11T07:57:14;7.32;;;4.93;;
72493;SDS011;60520;49.182;-0.348;2024-01-11T07:59:41;6.25;;;4.20;;
72493;SDS011;60520;49.182;-0.348;2024-01-11T08:02:09;6.03;;;4.47;;
72493;SDS011;60520;49.182;-0.348;2024-01-11T08:04:36;6.10;;;4.75;;
72493;SDS011;60520;49.182;-0.348;2024-01-11T08:07:04;7.80;;;4.72;;
72493;SDS011;60520;49.182;-0.348;2024-01-11T08:09:32;6.53;;;4.50;;
72493;SDS011;60520;49.182;-0.348;2024-01-11T08:11:59;7.32;;;4.90;;
72493;SDS011;60520;49.182;-0.348;2024-01-11T08:14:26;7.03;;;4.50;;
72493;SDS011;60520;49.182;-0.348;2024-01-11T08:16:53;7.03;;;4.80;;
72493;SDS011;60520;49.182;-0.348;2024-01-11T08:19:21;8.05;;;4.40;;
72493;SDS011;60520;49.182;-0.348;2024-01-11T08:21:48;6.10;;;4.40;;
72493;SDS011;60520;49.182;-0.348;2024-01-11T08:24:15;7.32;;;4.97;;
72493;SDS011;60520;49.182;-0.348;2024-01-11T08:26:44;5.82;;;4.30;;
72493;SDS011;60520;49.182;-0.348;2024-01-11T08:29:12;6.82;;;4.50;;
72493;SDS011;60520;49.182;-0.348;2024-01-11T08:31:40;7.68;;;4.53;;
72493;SDS011;60520;49.182;-0.348;2024-01-11T08:34:08;6.55;;;4.50;;
72493;SDS011;60520;49.182;-0.348;2024-01-11T08:36:36;7.78;;;4.30;;
72493;SDS011;60520;49.182;-0.348;2024-01-11T08:39:04;5.82;;;4.50;;
72493;SDS011;60520;49.182;-0.348;2024-01-11T08:41:32;6.72;;;4.25;;
72493;SDS011;60520;49.182;-0.348;2024-01-11T08:44:01;9.23;;;4.75;;
72493;SDS011;60520;49.182;-0.348;2024-01-11T08:46:30;8.82;;;4.57;;
72493;SDS011;60520;49.182;-0.348;2024-01-11T08:48:58;6.53;;;4.55;;
72493;SDS011;60520;49.182;-0.348;2024-01-11T08:51:26;6.95;;;4.20;;
72493;SDS011;60520;49.182;-0.348;2024-01-11T08:53:54;7.60;;;4.60;;
72493;SDS011;60520;49.182;-0.348;2024-01-11T08:56:21;11.52;;;5.00;;
72493;SDS011;60520;49.182;-0.348;2024-01-11T08:58:48;9.18;;;4.47;;
72493;SDS011;60520;49.182;-0.348;2024-01-11T09:01:17;6.20;;;4.60;;
72493;SDS011;60520;49.182;-0.348;2024-01-11T09:03:44;7.85;;;4.57;;
72493;SDS011;60520;49.182;-0.348;2024-01-11T09:06:13;10.13;;;4.63;;
72493;SDS011;60520;49.182;-0.348;2024-01-11T09:08:40;7.97;;;4.35;;
72493;SDS011;60520;49.182;-0.348;2024-01-11T09:11:07;7.55;;;5.18;;
72493;SDS011;60520;49.182;-0.348;2024-01-11T09:13:35;6.70;;;4.60;;
72493;SDS011;60520;49.182;-0.348;2024-01-11T09:16:03;6.80;;;4.60;;
72493;SDS011;60520;49.182;-0.348;2024-01-11T09:18:33;9.00;;;4.60;;
72493;SDS011;60520;49.182;-0.348;2024-01-11T09:21:00;7.18;;;4.40;;
72493;SDS011;60520;49.182;-0.348;2024-01-11T09:23:28;8.40;;;4.53;;
72493;SDS011;60520;49.182;-0.348;2024-01-11T09:25:56;7.38;;;4.47;;
72493;SDS011;60520;49.182;-0.348;2024-01-11T09:28:23;7.45;;;4.38;;
72493;SDS011;60520;49.182;-0.348;2024-01-11T09:30:50;9.23;;;4.65;;
72493;SDS011;60520;49.182;-0.348;2024-01-11T09:33:17;7.35;;;4.25;;
72493;SDS011;60520;49.182;-0.348;2024-01-11T09:35:46;7.72;;;4.18;;
72493;SDS011;60520;49.182;-0.348;2024-01-11T09:38:13;8.00;;;4.65;;
72493;SDS011;60520;49.182;-0.348;2024-01-11T09:40:40;10.07;;;4.70;;
72493;SDS011;60520;49.182;-0.348;2024-01-11T09:43:07;7.85;;;4.45;;
72493;SDS011;60520;49.182;-0.348;2024-01-11T09:45:36;7.18;;;4.30;;
72493;SDS011;60520;49.182;-0.348;2024-01-11T09:48:04;6.70;;;4.43;;
72493;SDS011;60520;49.182;-0.348;2024-01-11T09:50:33;6.93;;;4.30;;
72493;SDS011;60520;49.182;-0.348;2024-01-11T09:53:01;8.75;;;4.22;;
72493;SDS011;60520;49.182;-0.348;2024-01-11T09:55:30;8.20;;;4.53;;
72493;SDS011;60520;49.182;-0.348;2024-01-11T09:57:57;7.38;;;4.75;;
72493;SDS011;60520;49.182;-0.348;2024-01-11T10:00:26;7.47;;;4.55;;
72493;SDS011;60520;49.182;-0.348;2024-01-11T10:02:54;8.45;;;4.43;;
72493;SDS011;60520;49.182;-0.348;2024-01-11T10:05:21;7.30;;;4.65;;
72493;SDS011;60520;49.182;-0.348;2024-01-11T10:07:49;6.85;;;4.43;;
72493;SDS011;60520;49.182;-0.348;2024-01-11T10:10:17;8.80;;;4.63;;
72493;SDS011;60520;49.182;-0.348;2024-01-11T10:12:45;8.77;;;4.30;;
72493;SDS011;60520;49.182;-0.348;2024-01-11T10:15:12;7.40;;;4.85;;
72493;SDS011;60520;49.182;-0.348;2024-01-11T10:17:40;12.75;;;5.40;;
72493;SDS011;60520;49.182;-0.348;2024-01-11T10:20:09;11.13;;;5.38;;
72493;SDS011;60520;49.182;-0.348;2024-01-11T10:22:38;11.52;;;5.28;;
72493;SDS011;60520;49.182;-0.348;2024-01-11T10:25:09;10.98;;;5.20;;
72493;SDS011;60520;49.182;-0.348;2024-01-11T10:27:38;12.77;;;5.50;;
72493;SDS011;60520;49.182;-0.348;2024-01-11T10:30:08;12.23;;;5.40;;
72493;SDS011;60520;49.182;-0.348;2024-01-11T10:32:35;13.88;;;5.25;;
72493;SDS011;60520;49.182;-0.348;2024-01-11T10:35:03;10.35;;;5.10;;
72493;SDS011;60520;49.182;-0.348;2024-01-11T10:37:31;9.10;;;4.68;;
72493;SDS011;60520;49.182;-0.348;2024-01-11T10:40:00;11.45;;;4.93;;
72493;SDS011;60520;49.182;-0.348;2024-01-11T10:42:29;11.07;;;5.43;;
72493;SDS011;60520;49.182;-0.348;2024-01-11T10:44:59;9.05;;;5.10;;
72493;SDS011;60520;49.182;-0.348;2024-01-11T10:47:30;10.40;;;5.22;;
72493;SDS011;60520;49.182;-0.348;2024-01-11T10:49:58;9.68;;;5.18;;
72493;SDS011;60520;49.182;-0.348;2024-01-11T10:52:38;9.65;;;5.20;;
72493;SDS011;60520;49.182;-0.348;2024-01-11T10:55:07;21.10;;;5.75;;
72493;SDS011;60520;49.182;-0.348;2024-01-11T10:57:34;15.10;;;5.22;;
72493;SDS011;60520;49.182;-0.348;2024-01-11T11:00:03;21.00;;;5.40;;
72493;SDS011;60520;49.182;-0.348;2024-01-11T11:02:31;10.90;;;4.82;;
72493;SDS011;60520;49.182;-0.348;2024-01-11T11:04:59;11.68;;;5.18;;
72493;SDS011;60520;49.182;-0.348;2024-01-11T11:07:29;14.05;;;5.43;;
72493;SDS011;60520;49.182;-0.348;2024-01-11T11:09:56;10.23;;;5.00;;
72493;SDS011;60520;49.182;-0.348;2024-01-11T11:12:24;18.05;;;5.22;;
72493;SDS011;60520;49.182;-0.348;2024-01-11T11:14:52;19.70;;;6.00;;
72493;SDS011;60520;49.182;-0.348;2024-01-11T11:17:21;16.17;;;5.43;;
72493;SDS011;60520;49.182;-0.348;2024-01-11T11:19:49;15.57;;;5.55;;
72493;SDS011;60520;49.182;-0.348;2024-01-11T11:22:16;13.75;;;5.20;;
72493;SDS011;60520;49.182;-0.348;2024-01-11T11:24:44;17.10;;;5.32;;
72493;SDS011;60520;49.182;-0.348;2024-01-11T11:27:13;12.15;;;5.05;;
72493;SDS011;60520;49.182;-0.348;2024-01-11T11:29:41;18.92;;;5.57;;
72493;SDS011;60520;49.182;-0.348;2024-01-11T11:32:10;15.65;;;5.38;;
72493;SDS011;60520;49.182;-0.348;2024-01-11T11:34:41;14.45;;;4.70;;
72493;SDS011;60520;49.182;-0.348;2024-01-11T11:37:09;17.52;;;5.15;;
72493;SDS011;60520;49.182;-0.348;2024-01-11T11:39:36;15.23;;;4.80;;
72493;SDS011;60520;49.182;-0.348;2024-01-11T11:42:04;13.73;;;4.70;;
72493;SDS011;60520;49.182;-0.348;2024-01-11T11:44:32;12.73;;;4.95;;
72493;SDS011;60520;49.182;-0.348;2024-01-11T11:47:18;10.48;;;5.32;;
72493;SDS011;60520;49.182;-0.348;2024-01-11T11:50:04;16.48;;;5.13;;
72493;SDS011;60520;49.182;-0.348;2024-01-11T11:52:32;10.15;;;4.70;;
72493;SDS011;60520;49.182;-0.348;2024-01-11T11:55:00;14.48;;;5.00;;
72493;SDS011;60520;49.182;-0.348;2024-01-11T11:57:27;12.23;;;4.93;;
72493;SDS011;60520;49.182;-0.348;2024-01-11T11:59:55;30.77;;;5.60;;
72493;SDS011;60520;49.182;-0.348;2024-01-11T12:02:24;11.23;;;4.88;;
72493;SDS011;60520;49.182;-0.348;2024-01-11T12:04:52;16.38;;;5.13;;
72493;SDS011;60520;49.182;-0.348;2024-01-11T12:07:20;12.15;;;5.57;;
72493;SDS011;60520;49.182;-0.348;2024-01-11T12:09:48;13.00;;;5.43;;
72493;SDS011;60520;49.182;-0.348;2024-01-11T12:12:15;9.48;;;4.90;;
72493;SDS011;60520;49.182;-0.348;2024-01-11T12:14:45;12.73;;;4.75;;
72493;SDS011;60520;49.182;-0.348;2024-01-11T12:17:14;12.52;;;4.45;;
72493;SDS011;60520;49.182;-0.348;2024-01-11T12:19:41;14.55;;;5.03;;
72493;SDS011;60520;49.182;-0.348;2024-01-11T12:22:08;15.73;;;5.75;;
72493;SDS011;60520;49.182;-0.348;2024-01-11T12:24:37;12.63;;;4.78;;
72493;SDS011;60520;49.182;-0.348;2024-01-11T12:27:04;13.52;;;4.72;;
72493;SDS011;60520;49.182;-0.348;2024-01-11T12:29:31;14.30;;;4.70;;
72493;SDS011;60520;49.182;-0.348;2024-01-11T12:31:59;9.55;;;4.53;;
72493;SDS011;60520;49.182;-0.348;2024-01-11T12:34:26;9.38;;;4.93;;
72493;SDS011;60520;49.182;-0.348;2024-01-11T12:36:54;6.95;;;4.63;;
72493;SDS011;60520;49.182;-0.348;2024-01-11T12:39:25;9.48;;;4.78;;
72493;SDS011;60520;49.182;-0.348;2024-01-11T12:41:55;9.45;;;5.10;;
72493;SDS011;60520;49.182;-0.348;2024-01-11T12:44:23;10.07;;;4.95;;
72493;SDS011;60520;49.182;-0.348;2024-01-11T12:46:50;11.73;;;4.75;;
72493;SDS011;60520;49.182;-0.348;2024-01-11T12:49:18;11.13;;;4.50;;
72493;SDS011;60520;49.182;-0.348;2024-01-11T12:51:45;11.27;;;5.07;;
72493;SDS011;60520;49.182;-0.348;2024-01-11T12:54:12;8.13;;;4.55;;
72493;SDS011;60520;49.182;-0.348;2024-01-11T12:56:40;9.77;;;5.32;;
72493;SDS011;60520;49.182;-0.348;2024-01-11T12:59:09;9.43;;;4.60;;
72493;SDS011;60520;49.182;-0.348;2024-01-11T13:01:37;11.73;;;4.55;;
72493;SDS011;60520;49.182;-0.348;2024-01-11T13:04:05;7.95;;;4.63;;
72493;SDS011;60520;49.182;-0.348;2024-01-11T13:06:34;12.35;;;5.18;;
72493;SDS011;60520;49.182;-0.348;2024-01-11T13:09:02;8.43;;;4.97;;
72493;SDS011;60520;49.182;-0.348;2024-01-11T13:11:29;10.85;;;4.82;;
72493;SDS011;60520;49.182;-0.348;2024-01-11T13:13:56;11.07;;;5.10;;
72493;SDS011;60520;49.182;-0.348;2024-01-11T13:16:27;8.43;;;4.78;;
72493;SDS011;60520;49.182;-0.348;2024-01-11T13:18:55;9.13;;;4.95;;
72493;SDS011;60520;49.182;-0.348;2024-01-11T13:21:22;10.90;;;4.70;;
72493;SDS011;60520;49.182;-0.348;2024-01-11T13:23:50;8.90;;;5.03;;
72493;SDS011;60520;49.182;-0.348;2024-01-11T13:26:17;8.82;;;5.00;;
72493;SDS011;60520;49.182;-0.348;2024-01-11T13:28:44;10.88;;;5.00;;
72493;SDS011;60520;49.182;-0.348;2024-01-11T13:31:11;12.60;;;5.20;;
72493;SDS011;60520;49.182;-0.348;2024-01-11T13:33:40;11.60;;;5.38;;
72493;SDS011;60520;49.182;-0.348;2024-01-11T13:36:07;13.35;;;5.38;;
72493;SDS011;60520;49.182;-0.348;2024-01-11T13:38:35;14.85;;;4.88;;
72493;SDS011;60520;49.182;-0.348;2024-01-11T13:41:02;9.60;;;5.47;;
72493;SDS011;60520;49.182;-0.348;2024-01-11T13:43:30;8.05;;;4.97;;
72493;SDS011;60520;49.182;-0.348;2024-01-11T13:45:57;10.20;;;5.07;;
72493;SDS011;60520;49.182;-0.348;2024-01-11T13:48:24;8.98;;;5.10;;
72493;SDS011;60520;49.182;-0.348;2024-01-11T13:50:53;6.88;;;4.78;;
72493;SDS011;60520;49.182;-0.348;2024-01-11T13:53:20;10.77;;;5.00;;
72493;SDS011;60520;49.182;-0.348;2024-01-11T13:55:47;8.60;;;4.97;;
72493;SDS011;60520;49.182;-0.348;2024-01-11T13:58:15;13.35;;;5.30;;
72493;SDS011;60520;49.182;-0.348;2024-01-11T14:00:43;11.82;;;4.80;;
72493;SDS011;60520;49.182;-0.348;2024-01-11T14:03:10;8.25;;;5.22;;
72493;SDS011;60520;49.182;-0.348;2024-01-11T14:05:37;12.40;;;5.40;;
72493;SDS011;60520;49.182;-0.348;2024-01-11T14:08:06;8.60;;;5.20;;
72493;SDS011;60520;49.182;-0.348;2024-01-11T14:10:33;11.10;;;5.35;;
72493;SDS011;60520;49.182;-0.348;2024-01-11T14:13:01;8.38;;;4.93;;
72493;SDS011;60520;49.182;-0.348;2024-01-11T14:15:28;11.05;;;4.15;;
72493;SDS011;60520;49.182;-0.348;2024-01-11T14:17:59;7.30;;;4.15;;
72493;SDS011;60520;49.182;-0.348;2024-01-11T14:20:26;7.50;;;3.55;;
72493;SDS011;60520;49.182;-0.348;2024-01-11T14:22:58;8.65;;;3.78;;
72493;SDS011;60520;49.182;-0.348;2024-01-11T14:25:27;6.32;;;3.50;;
72493;SDS011;60520;49.182;-0.348;2024-01-11T14:27:55;6.80;;;3.83;;
72493;SDS011;60520;49.182;-0.348;2024-01-11T14:30:22;6.82;;;4.47;;
72493;SDS011;60520;49.182;-0.348;2024-01-11T14:32:49;8.45;;;4.60;;